South Londonderry, Pennsylvania
Current Conditions -  °F | °C
As of 2:56 AM on Sunday 23 Nov 2014 (Local Time) from KMDT Reporting Station
Overcast Overcast  
Wind Chill: 32°   Ceiling: 9000
Heat Index: 37°   Visibility: 10mi
Dew Point: 22°   Wind: 6mph
Humidity: 54%   Direction: 130°SE
Pressure: 30.17"   Gusts: NA
Location:  40.2634°N, 76.626°W
Report Text: KMDT 230756Z 13005KT 10SM BKN090 OVC110 03/M06 A3017 RMK AO2 SLP220 T00281056
Loading
Personal Weather Stations






























Interactive Weather Map New forecast layout! Learn more

10-Day Weather Forecast

Advertisements
Track Severe Weather on mobile